createdAt,value
2023-03-15T00:03:05.689Z,96.44
2023-03-15T00:06:01.210Z,96.32
2023-03-15T00:08:52.217Z,95.57
2023-03-15T00:11:39.879Z,94.33
2023-03-15T00:14:26.494Z,93.35
2023-03-15T00:17:13.378Z,93.31
2023-03-15T00:20:02.081Z,93.08
2023-03-15T00:22:49.023Z,92.29
2023-03-15T00:25:36.411Z,92.12
2023-03-15T00:28:34.969Z,92.02
2023-03-15T00:31:29.873Z,91.68
2023-03-15T00:34:24.006Z,91.67
2023-03-15T00:37:11.583Z,91.36
2023-03-15T00:39:58.595Z,91.44
2023-03-15T00:42:50.152Z,90.86
2023-03-15T00:45:36.917Z,91.14
2023-03-15T00:48:23.510Z,90.90
2023-03-15T00:51:13.898Z,90.96
2023-03-15T00:54:00.865Z,90.51
2023-03-15T00:56:47.567Z,88.34
2023-03-15T00:59:35.261Z,87.74
2023-03-15T01:02:24.722Z,86.02
2023-03-15T01:05:11.945Z,87.14
2023-03-15T01:07:58.854Z,86.39
2023-03-15T01:10:45.776Z,86.11
2023-03-15T01:13:33.522Z,87.19
2023-03-15T01:16:21.505Z,88.22
2023-03-15T01:19:08.269Z,89.72
2023-03-15T01:21:54.978Z,90.37
2023-03-15T01:24:41.772Z,90.42
2023-03-15T01:27:28.600Z,89.72
2023-03-15T01:30:15.332Z,88.45
2023-03-15T01:33:02.081Z,88.85
2023-03-15T01:36:03.364Z,89.62
2023-03-15T01:38:51.213Z,90.94
2023-03-15T01:41:38.116Z,91.69
2023-03-15T01:44:25.060Z,92.57
2023-03-15T01:47:13.224Z,92.78
2023-03-15T01:50:08.642Z,92.69
2023-03-15T01:52:55.252Z,92.75
2023-03-15T01:55:42.005Z,92.84
2023-03-15T01:58:29.416Z,92.29
2023-03-15T02:01:16.978Z,91.40
2023-03-15T02:04:09.650Z,90.81
2023-03-15T02:07:00.918Z,88.76
2023-03-15T02:10:03.701Z,88.38
2023-03-15T02:12:53.304Z,88.19
2023-03-15T02:15:47.002Z,88.34
2023-03-15T02:18:37.235Z,89.03
2023-03-15T02:21:55.256Z,90.15
2023-03-15T02:24:45.661Z,91.41
2023-03-15T02:27:37.817Z,91.95
2023-03-15T02:30:24.406Z,91.35
2023-03-15T02:33:25.880Z,91.21
2023-03-15T02:36:20.552Z,90.97
2023-03-15T02:39:19.602Z,91.02
2023-03-15T02:42:08.020Z,90.45
2023-03-15T02:44:57.051Z,89.81
2023-03-15T02:47:45.872Z,89.48
2023-03-15T02:50:33.342Z,88.44
2023-03-15T02:53:20.169Z,87.60
2023-03-15T02:56:07.231Z,86.96
2023-03-15T02:58:53.991Z,86.70
2023-03-15T03:01:41.377Z,86.91
2023-03-15T03:04:27.815Z,86.75
2023-03-15T03:07:14.644Z,86.62
2023-03-15T03:10:01.294Z,86.44
2023-03-15T03:12:47.862Z,86.21
2023-03-15T03:15:34.558Z,86.21
2023-03-15T03:18:21.255Z,86.00
2023-03-15T03:21:08.655Z,85.75
2023-03-15T03:23:55.692Z,85.51
2023-03-15T03:26:42.389Z,85.82
2023-03-15T03:29:29.209Z,85.63
2023-03-15T03:32:16.022Z,85.48
2023-03-15T03:35:02.838Z,85.53
2023-03-15T03:37:49.573Z,85.71
2023-03-15T03:40:36.186Z,85.83
2023-03-15T03:43:23.031Z,85.66
2023-03-15T03:46:09.736Z,86.12
2023-03-15T03:48:57.080Z,86.25
2023-03-15T03:51:43.819Z,86.26
2023-03-15T03:54:32.257Z,85.98
2023-03-15T03:57:18.772Z,85.96
2023-03-15T04:00:09.553Z,85.41
2023-03-15T04:02:58.097Z,85.62
2023-03-15T04:05:46.460Z,85.02
2023-03-15T04:08:35.022Z,84.94
2023-03-15T04:11:22.399Z,84.21
2023-03-15T04:14:13.935Z,84.49
2023-03-15T04:17:03.918Z,84.57
2023-03-15T04:19:52.063Z,84.42
2023-03-15T04:22:39.481Z,84.33
2023-03-15T04:25:26.561Z,83.79
2023-03-15T04:28:13.086Z,83.56
2023-03-15T04:30:59.737Z,83.13
2023-03-15T04:33:46.571Z,83.59
2023-03-15T04:36:33.372Z,83.56
2023-03-15T04:39:20.057Z,83.35
2023-03-15T04:42:07.223Z,83.03
2023-03-15T04:44:54.131Z,83.12
2023-03-15T04:47:41.317Z,83.06
2023-03-15T04:50:30.403Z,82.07
2023-03-15T04:53:18.465Z,82.30
2023-03-15T04:56:05.840Z,81.81
2023-03-15T04:58:52.104Z,80.85
2023-03-15T05:01:39.331Z,81.10
2023-03-15T05:04:25.942Z,81.27
2023-03-15T05:07:12.965Z,80.37
2023-03-15T05:09:59.466Z,80.34
2023-03-15T05:12:47.166Z,79.70
2023-03-15T05:15:34.760Z,79.83
2023-03-15T05:18:22.095Z,79.38
2023-03-15T05:21:10.808Z,79.23
2023-03-15T05:23:57.590Z,79.28
2023-03-15T05:26:46.495Z,78.11
2023-03-15T05:29:33.529Z,77.72
2023-03-15T05:35:36.772Z,77.39
2023-03-15T05:38:26.685Z,77.25
2023-03-15T05:41:17.954Z,77.16
2023-03-15T05:44:05.216Z,76.84
2023-03-15T05:46:51.816Z,77.26
2023-03-15T05:49:38.053Z,77.03
2023-03-15T05:52:24.746Z,77.18
2023-03-15T05:55:13.604Z,76.82
2023-03-15T05:57:59.985Z,76.15
2023-03-15T06:00:47.300Z,76.20
2023-03-15T06:03:34.076Z,76.39
2023-03-15T06:06:20.824Z,77.20
2023-03-15T06:09:07.148Z,77.02
2023-03-15T06:11:53.936Z,76.87
2023-03-15T06:14:40.742Z,76.35
2023-03-15T06:17:27.696Z,76.36
2023-03-15T06:26:40.862Z,74.05
2023-03-15T06:29:28.028Z,74.13
2023-03-15T06:32:14.887Z,74.10
2023-03-15T06:35:05.324Z,73.04
2023-03-15T06:37:53.264Z,72.98
2023-03-15T06:40:44.298Z,72.41
2023-03-15T06:43:31.957Z,71.68
2023-03-15T06:46:18.482Z,71.01
2023-03-15T06:49:05.046Z,71.87
2023-03-15T06:51:52.181Z,71.75
2023-03-15T06:54:38.987Z,71.11
2023-03-15T06:57:27.385Z,71.64
2023-03-15T07:00:15.142Z,70.87
2023-03-15T07:03:01.769Z,69.72
2023-03-15T07:05:56.801Z,69.71
2023-03-15T07:08:43.786Z,69.79
2023-03-15T07:11:30.132Z,69.64
2023-03-15T07:14:17.035Z,70.86
2023-03-15T07:17:04.759Z,71.09
2023-03-15T07:19:56.569Z,69.33
2023-03-15T07:22:45.628Z,69.58
2023-03-15T07:25:33.346Z,68.78
2023-03-15T07:28:24.272Z,68.15
2023-03-15T07:31:11.655Z,68.33
2023-03-15T07:33:58.026Z,68.17
2023-03-15T07:36:44.720Z,67.74
2023-03-15T07:39:32.609Z,67.51
2023-03-15T07:42:19.737Z,67.20
2023-03-15T07:45:10.725Z,67.83
2023-03-15T07:47:57.382Z,67.76
2023-03-15T07:50:45.435Z,67.70
2023-03-15T07:53:32.016Z,68.09
2023-03-15T07:56:19.735Z,68.34
2023-03-15T08:00:18.901Z,68.39
2023-03-15T08:03:21.666Z,68.83
2023-03-15T08:06:08.557Z,68.28
2023-03-15T08:08:54.943Z,68.49
2023-03-15T08:11:42.266Z,67.44
2023-03-15T08:14:31.848Z,67.12
2023-03-15T08:17:18.759Z,67.99
2023-03-15T08:20:07.962Z,65.40
2023-03-15T08:22:54.912Z,65.45
2023-03-15T08:25:41.800Z,65.07
2023-03-15T08:28:28.321Z,63.87
2023-03-15T08:31:14.980Z,62.52
2023-03-15T08:34:01.720Z,62.83
2023-03-15T08:36:49.025Z,63.57
2023-03-15T08:39:39.180Z,63.31
2023-03-15T08:42:26.044Z,62.39
2023-03-15T08:45:13.587Z,63.39
2023-03-15T08:48:01.198Z,62.44
2023-03-15T08:50:47.908Z,62.74
2023-03-15T08:53:35.585Z,63.32
2023-03-15T08:56:22.466Z,63.96
2023-03-15T08:59:12.828Z,63.62
2023-03-15T09:02:01.496Z,62.46
2023-03-15T09:04:48.760Z,61.20
2023-03-15T09:07:44.158Z,60.66
2023-03-15T09:10:30.410Z,57.66
2023-03-15T09:13:16.884Z,57.61
2023-03-15T09:16:04.803Z,57.07
2023-03-15T09:18:51.650Z,55.98
2023-03-15T09:21:38.475Z,54.45
2023-03-15T09:24:25.097Z,51.26
2023-03-15T09:27:11.877Z,50.54
2023-03-15T09:29:58.213Z,50.38
2023-03-15T09:32:45.881Z,49.88
2023-03-15T09:35:32.836Z,50.49
2023-03-15T09:38:20.356Z,50.80
2023-03-15T09:41:06.884Z,50.20
2023-03-15T09:44:32.430Z,48.20
2023-03-15T09:47:47.108Z,47.05
2023-03-15T09:50:40.970Z,47.36
2023-03-15T09:53:36.359Z,47.75
2023-03-15T09:56:25.387Z,47.73
2023-03-15T09:59:13.463Z,46.04
2023-03-15T10:02:15.772Z,45.52
2023-03-15T10:05:16.545Z,44.58
2023-03-15T10:08:03.547Z,41.28
2023-03-15T10:11:14.656Z,40.03
2023-03-15T10:14:09.524Z,38.66
2023-03-15T10:16:56.058Z,37.02
2023-03-15T10:19:50.575Z,37.49
2023-03-15T10:22:46.174Z,38.70
2023-03-15T10:25:33.354Z,38.57
2023-03-15T10:28:25.468Z,38.18
2023-03-15T10:31:25.848Z,39.18
2023-03-15T10:34:16.901Z,39.60
2023-03-15T10:37:06.428Z,38.53
2023-03-15T10:39:59.720Z,38.61
2023-03-15T10:42:47.433Z,38.08
2023-03-15T10:45:34.474Z,36.18
2023-03-15T10:48:21.155Z,35.06
2023-03-15T10:51:27.449Z,36.00
2023-03-15T10:54:25.100Z,37.83
2023-03-15T10:57:17.893Z,37.45
2023-03-15T11:00:20.762Z,37.52
2023-03-15T11:03:17.061Z,38.13
2023-03-15T11:06:20.755Z,39.16
2023-03-15T11:09:10.740Z,39.45
2023-03-15T11:12:01.129Z,40.53
2023-03-15T11:14:50.574Z,41.48
2023-03-15T11:17:44.149Z,41.89
2023-03-15T11:20:40.137Z,40.83
2023-03-15T11:23:29.656Z,40.05
2023-03-15T11:26:31.404Z,38.86
2023-03-15T11:29:19.201Z,39.63
2023-03-15T11:32:23.205Z,39.98
2023-03-15T11:35:19.664Z,40.39
2023-03-15T11:38:15.988Z,39.97
2023-03-15T11:41:13.718Z,38.86
2023-03-15T11:44:25.885Z,39.69
2023-03-15T11:47:28.402Z,37.74
2023-03-15T11:50:16.168Z,37.78
2023-03-15T11:53:07.067Z,37.10
2023-03-15T11:55:54.931Z,37.83
2023-03-15T11:58:42.739Z,38.39
2023-03-15T12:01:29.192Z,38.61
2023-03-15T12:04:38.051Z,37.43
2023-03-15T12:07:31.046Z,37.90
2023-03-15T12:10:32.806Z,37.62
2023-03-15T12:13:28.728Z,38.06
2023-03-15T12:16:22.425Z,38.66
2023-03-15T12:19:15.457Z,39.67
2023-03-15T12:22:05.930Z,38.78
2023-03-15T12:24:55.655Z,37.30
2023-03-15T12:27:55.846Z,36.39
2023-03-15T12:30:55.332Z,35.43
2023-03-15T12:34:11.668Z,34.25
2023-03-15T12:37:09.318Z,36.18
2023-03-15T12:44:50.542Z,39.89
2023-03-15T12:47:58.250Z,40.75
2023-03-15T12:50:45.023Z,42.64
2023-03-15T12:53:40.572Z,43.10
2023-03-15T12:56:38.626Z,43.40
2023-03-15T12:59:44.173Z,45.04
2023-03-15T13:02:43.338Z,44.31
2023-03-15T13:05:34.481Z,44.91
2023-03-15T13:08:55.229Z,45.64
2023-03-15T13:12:15.918Z,46.27
2023-03-15T13:15:15.181Z,45.14
2023-03-15T13:26:37.752Z,47.70
2023-03-15T13:29:31.014Z,47.85
2023-03-15T13:32:22.557Z,47.19
2023-03-15T13:35:13.745Z,47.31
2023-03-15T13:38:07.885Z,46.38
2023-03-15T13:40:57.586Z,43.34
2023-03-15T13:44:00.910Z,42.86
2023-03-15T13:46:53.307Z,41.93
2023-03-15T13:49:39.829Z,42.91
2023-03-15T13:52:26.642Z,43.51
2023-03-15T13:55:16.013Z,42.44
2023-03-15T13:58:07.725Z,40.19
2023-03-15T14:01:04.973Z,40.20
2023-03-15T14:04:07.539Z,38.40
2023-03-15T14:07:13.408Z,39.43
2023-03-15T14:10:23.729Z,39.47
2023-03-15T14:13:28.162Z,40.28
2023-03-15T14:16:18.229Z,40.15
2023-03-15T14:19:28.538Z,40.09
2023-03-15T14:22:19.217Z,41.27
2023-03-15T14:25:21.341Z,40.61
2023-03-15T14:28:15.800Z,40.79
2023-03-15T14:31:03.359Z,42.37
2023-03-15T14:34:05.029Z,43.02
2023-03-15T14:36:58.181Z,44.44
2023-03-15T14:39:44.892Z,43.50
2023-03-15T14:42:33.546Z,44.20
2023-03-15T14:45:22.484Z,44.29
2023-03-15T14:48:24.066Z,44.88
2023-03-15T14:51:25.757Z,45.05
2023-03-15T14:54:13.455Z,45.26
2023-03-15T14:57:00.593Z,45.56
2023-03-15T14:59:50.798Z,44.41
2023-03-15T15:02:44.057Z,44.45
2023-03-15T15:05:34.431Z,44.63
2023-03-15T15:08:22.531Z,43.95
2023-03-15T15:11:10.461Z,42.30
2023-03-15T15:13:57.940Z,42.28
2023-03-15T15:16:44.893Z,42.79
2023-03-15T15:19:31.743Z,41.71
2023-03-15T15:22:19.466Z,40.77
2023-03-15T15:25:14.384Z,41.09
2023-03-15T15:28:01.082Z,42.72
2023-03-15T15:31:45.185Z,44.12
2023-03-15T15:34:34.151Z,44.14
2023-03-15T15:37:36.496Z,43.70
2023-03-15T15:40:28.089Z,43.77
2023-03-15T15:43:14.570Z,43.38
2023-03-15T15:46:02.105Z,43.81
2023-03-15T15:48:48.847Z,44.93
2023-03-15T15:51:45.888Z,45.26
2023-03-15T15:54:35.775Z,45.45
2023-03-15T15:57:26.559Z,46.43
2023-03-15T16:00:24.017Z,46.79
2023-03-15T16:03:18.643Z,47.97
2023-03-15T16:12:32.948Z,49.78
2023-03-15T16:15:19.465Z,50.90
2023-03-15T16:18:11.821Z,51.36
2023-03-15T16:21:01.079Z,51.70
2023-03-15T16:23:54.427Z,52.32
2023-03-15T16:26:41.404Z,53.11
2023-03-15T16:29:37.925Z,53.68
2023-03-15T16:32:42.872Z,54.47
2023-03-15T16:35:36.551Z,54.91
2023-03-15T16:38:30.104Z,55.58
2023-03-15T16:41:17.991Z,55.41
2023-03-15T16:44:11.726Z,55.97
2023-03-15T16:46:58.610Z,57.05
2023-03-15T16:49:45.734Z,58.16
2023-03-15T16:52:33.174Z,58.58
2023-03-15T16:55:25.007Z,59.01
2023-03-15T16:58:17.134Z,59.36
2023-03-15T17:01:03.555Z,59.85
2023-03-15T17:03:50.950Z,60.10
2023-03-15T17:06:37.996Z,60.50
2023-03-15T17:09:24.645Z,60.95
2023-03-15T17:12:23.759Z,61.03
2023-03-15T17:15:11.712Z,61.41
2023-03-15T17:17:58.356Z,61.71
2023-03-15T17:20:48.556Z,61.95
2023-03-15T17:23:37.165Z,62.01
2023-03-15T17:26:24.462Z,62.55
2023-03-15T17:29:15.177Z,62.65
2023-03-15T17:32:02.355Z,62.83
2023-03-15T17:34:48.926Z,63.11
2023-03-15T17:37:38.029Z,63.27
2023-03-15T17:40:29.887Z,63.58
2023-03-15T17:43:17.329Z,63.82
2023-03-15T17:46:04.398Z,63.89
2023-03-15T17:48:51.363Z,64.20
2023-03-15T17:51:38.468Z,64.46
2023-03-15T17:54:24.962Z,65.05
2023-03-15T17:57:15.051Z,65.01
2023-03-15T18:00:02.448Z,65.36
2023-03-15T18:02:55.583Z,65.66
2023-03-15T18:05:44.349Z,65.87
2023-03-15T18:08:31.462Z,66.34
2023-03-15T18:11:33.922Z,66.55
2023-03-15T18:14:21.120Z,66.66
2023-03-15T18:17:07.697Z,66.67
2023-03-15T18:19:54.662Z,66.42
2023-03-15T18:22:43.267Z,66.64
2023-03-15T18:25:32.879Z,66.63
2023-03-15T18:28:20.276Z,66.78
2023-03-15T18:31:26.338Z,67.01
2023-03-15T18:34:17.213Z,67.22
2023-03-15T18:37:05.772Z,67.22
2023-03-15T18:39:52.278Z,67.24
2023-03-15T18:42:40.792Z,67.16
2023-03-15T18:45:30.834Z,67.24
2023-03-15T18:48:19.545Z,67.14
2023-03-15T18:51:12.211Z,67.05
2023-03-15T18:53:58.935Z,67.13
2023-03-15T18:56:46.987Z,67.20
2023-03-15T18:59:34.104Z,67.21
2023-03-15T19:02:20.834Z,67.27
2023-03-15T19:05:08.319Z,67.40
2023-03-15T19:07:55.313Z,67.43
2023-03-15T19:10:44.276Z,67.61
2023-03-15T19:13:32.662Z,68.03
2023-03-15T19:16:20.708Z,67.92
2023-03-15T19:19:36.960Z,67.95
2023-03-15T19:22:23.655Z,68.03
2023-03-15T19:25:14.209Z,68.11
2023-03-15T19:28:00.609Z,68.12
2023-03-15T19:30:51.808Z,68.00
2023-03-15T19:33:39.379Z,68.26
2023-03-15T19:36:26.323Z,68.44
2023-03-15T19:39:14.912Z,68.84
2023-03-15T19:42:05.022Z,68.94
2023-03-15T19:44:51.871Z,69.39
2023-03-15T19:47:39.424Z,69.46
2023-03-15T19:50:33.439Z,69.44
2023-03-15T19:53:28.555Z,69.72
2023-03-15T19:56:15.540Z,70.43
2023-03-15T19:59:06.877Z,70.41
2023-03-15T20:01:55.649Z,70.59
2023-03-15T20:04:50.094Z,70.41
2023-03-15T20:07:38.578Z,70.86
2023-03-15T20:10:25.793Z,70.97
2023-03-15T20:13:12.829Z,70.69
2023-03-15T20:16:01.931Z,70.85
2023-03-15T20:18:51.685Z,70.67
2023-03-15T20:21:44.910Z,70.75
2023-03-15T20:24:32.936Z,70.14
2023-03-15T20:27:21.472Z,70.36
2023-03-15T20:30:17.800Z,70.53
2023-03-15T20:33:06.602Z,70.22
2023-03-15T20:35:53.532Z,69.94
2023-03-15T20:38:40.600Z,69.68
2023-03-15T20:41:27.519Z,69.54
2023-03-15T20:44:14.186Z,69.44
2023-03-15T20:47:02.139Z,69.49
2023-03-15T20:49:48.968Z,69.33
2023-03-15T20:52:36.126Z,69.54
2023-03-15T20:55:24.735Z,69.61
2023-03-15T20:58:12.761Z,69.63
2023-03-15T21:01:04.630Z,69.79
2023-03-15T21:03:57.583Z,69.60
2023-03-15T21:06:45.420Z,69.62
2023-03-15T21:09:32.187Z,69.48
2023-03-15T21:12:20.216Z,69.47
2023-03-15T21:15:07.433Z,69.80
2023-03-15T21:17:53.959Z,69.86
2023-03-15T21:20:41.202Z,69.99
2023-03-15T21:23:31.238Z,69.91
2023-03-15T21:26:19.900Z,69.89
2023-03-15T21:29:07.468Z,69.80
2023-03-15T21:31:53.747Z,69.94
2023-03-15T21:34:42.563Z,70.18
2023-03-15T21:44:08.994Z,70.24
2023-03-15T21:46:54.593Z,70.38
2023-03-15T21:49:44.034Z,70.49
2023-03-15T21:52:28.918Z,69.90
2023-03-15T21:55:16.598Z,69.84
2023-03-15T21:58:04.176Z,70.02
2023-03-15T22:00:49.686Z,70.10
2023-03-15T22:03:41.828Z,69.81
2023-03-15T22:06:27.472Z,69.96
2023-03-15T22:09:12.712Z,70.02
2023-03-15T22:11:58.223Z,70.03
2023-03-15T22:14:44.690Z,70.24
2023-03-15T22:17:31.206Z,70.46
2023-03-15T22:20:17.128Z,70.38
2023-03-15T22:23:03.751Z,70.58
2023-03-15T22:25:49.531Z,70.80
2023-03-15T22:28:34.791Z,70.86
2023-03-15T22:31:20.532Z,71.03
2023-03-15T22:34:06.217Z,71.21
2023-03-15T22:36:52.112Z,71.11
2023-03-15T22:39:37.132Z,71.16
2023-03-15T22:42:22.095Z,71.33
2023-03-15T22:45:07.833Z,71.43
2023-03-15T22:47:53.200Z,71.40
2023-03-15T22:50:38.221Z,71.41
2023-03-15T22:53:23.710Z,71.43
2023-03-15T22:56:08.756Z,71.33
2023-03-15T22:58:55.455Z,71.42
2023-03-15T23:01:40.747Z,71.63
2023-03-15T23:04:26.239Z,71.49
2023-03-15T23:07:12.165Z,71.61
2023-03-15T23:09:57.179Z,71.64
2023-03-15T23:12:42.291Z,71.83
2023-03-15T23:15:28.990Z,71.95
2023-03-15T23:18:15.497Z,71.99
2023-03-15T23:21:09.461Z,72.09
2023-03-15T23:23:54.675Z,72.33
2023-03-15T23:26:39.715Z,72.46
2023-03-15T23:29:25.041Z,72.63
2023-03-15T23:32:11.032Z,72.94
2023-03-15T23:34:56.777Z,72.96
2023-03-15T23:37:42.486Z,72.87
2023-03-15T23:40:29.583Z,72.89
2023-03-15T23:43:15.121Z,73.25
2023-03-15T23:46:04.478Z,73.70
2023-03-15T23:48:51.722Z,73.71
2023-03-15T23:51:37.033Z,74.05
2023-03-15T23:54:23.010Z,74.20
2023-03-15T23:57:11.427Z,74.39
2023-03-15T23:59:56.675Z,74.71
